createdAt,value
2018-12-10T00:02:27.823Z,2.90
2018-12-10T00:04:58.458Z,3.00
2018-12-10T00:07:29.106Z,3.00
2018-12-10T00:09:57.847Z,2.30
2018-12-10T00:12:26.587Z,3.30
2018-12-10T00:14:55.288Z,2.50
2018-12-10T00:17:24.006Z,2.55
2018-12-10T00:19:53.715Z,3.12
2018-12-10T00:22:22.460Z,3.12
2018-12-10T00:24:51.118Z,3.40
2018-12-10T00:27:19.787Z,2.92
2018-12-10T00:29:48.455Z,2.77
2018-12-10T00:32:17.116Z,3.17
2018-12-10T00:34:45.851Z,2.85
2018-12-10T00:37:14.547Z,3.22
2018-12-10T00:39:43.273Z,3.00
2018-12-10T00:42:12.006Z,2.47
2018-12-10T00:44:40.684Z,2.33
2018-12-10T00:47:09.427Z,2.80
2018-12-10T00:49:38.104Z,3.30
2018-12-10T00:52:06.841Z,2.70
2018-12-10T00:54:35.581Z,3.37
2018-12-10T00:57:04.319Z,2.70
2018-12-10T00:59:33.050Z,2.75
2018-12-10T01:02:01.807Z,2.40
2018-12-10T01:04:30.535Z,2.40
2018-12-10T01:06:59.279Z,2.58
2018-12-10T01:09:28.094Z,2.65
2018-12-10T01:11:56.836Z,2.10
2018-12-10T01:14:25.494Z,2.30
2018-12-10T01:16:54.227Z,2.37
2018-12-10T01:19:22.978Z,2.70
2018-12-10T01:21:51.727Z,2.83
2018-12-10T01:24:20.487Z,2.60
2018-12-10T01:26:49.170Z,2.17
2018-12-10T01:29:17.842Z,2.90
2018-12-10T01:31:46.598Z,2.80
2018-12-10T01:34:15.263Z,2.83
2018-12-10T01:36:44.002Z,2.33
2018-12-10T01:39:12.723Z,2.87
2018-12-10T01:41:43.289Z,3.12
2018-12-10T01:44:12.158Z,2.85
2018-12-10T01:46:40.826Z,2.15
2018-12-10T01:49:09.547Z,2.45
2018-12-10T01:51:38.311Z,2.42
2018-12-10T01:54:07.062Z,2.12
2018-12-10T01:56:35.801Z,3.10
2018-12-10T01:59:04.539Z,2.95
2018-12-10T02:01:33.271Z,2.75
2018-12-10T02:04:01.959Z,2.80
2018-12-10T02:06:30.617Z,3.30
2018-12-10T02:08:59.362Z,2.50
2018-12-10T02:11:28.063Z,2.80
2018-12-10T02:13:56.743Z,2.83
2018-12-10T02:16:25.471Z,3.40
2018-12-10T02:18:54.151Z,3.22
2018-12-10T02:21:22.832Z,2.42
2018-12-10T02:23:51.512Z,2.10
2018-12-10T02:26:20.283Z,2.40
2018-12-10T02:28:54.427Z,2.93
2018-12-10T02:31:23.200Z,2.75
2018-12-10T02:33:51.883Z,2.00
2018-12-10T02:36:20.659Z,2.23
2018-12-10T02:38:49.414Z,3.60
2018-12-10T02:41:18.151Z,2.70
2018-12-10T02:43:46.926Z,3.17
2018-12-10T02:46:15.667Z,2.85
2018-12-10T02:48:44.344Z,3.00
2018-12-10T02:51:14.176Z,2.80
2018-12-10T02:53:42.879Z,2.75
2018-12-10T02:56:11.547Z,3.15
2018-12-10T02:58:40.276Z,2.37
2018-12-10T03:01:09.012Z,2.58
2018-12-10T03:03:37.831Z,3.10
2018-12-10T03:06:07.535Z,3.20
2018-12-10T03:08:36.270Z,2.30
2018-12-10T03:11:05.052Z,2.95
2018-12-10T03:13:33.734Z,2.50
2018-12-10T03:16:02.583Z,2.60
2018-12-10T03:18:31.314Z,2.80
2018-12-10T03:21:00.011Z,2.77
2018-12-10T03:23:28.711Z,2.50
2018-12-10T03:25:57.451Z,2.67
2018-12-10T03:28:26.158Z,2.27
2018-12-10T03:30:54.903Z,1.60
2018-12-10T03:33:23.743Z,2.10
2018-12-10T03:35:52.532Z,2.25
2018-12-10T03:38:21.210Z,2.30
2018-12-10T03:40:49.960Z,2.15
2018-12-10T03:43:18.642Z,2.80
2018-12-10T03:45:47.366Z,1.87
2018-12-10T03:48:16.123Z,2.12
2018-12-10T03:50:44.794Z,3.00
2018-12-10T03:53:13.536Z,2.52
2018-12-10T03:55:42.255Z,2.50
2018-12-10T03:58:10.927Z,3.10
2018-12-10T04:00:39.599Z,2.45
2018-12-10T04:03:08.340Z,2.40
2018-12-10T04:05:37.056Z,1.90
2018-12-10T04:08:05.899Z,2.63
2018-12-10T04:10:34.690Z,2.20
2018-12-10T04:13:03.434Z,2.87
2018-12-10T04:15:32.199Z,2.42
2018-12-10T04:18:00.935Z,2.65
2018-12-10T04:20:29.691Z,2.08
2018-12-10T04:22:58.372Z,1.80
2018-12-10T04:25:29.027Z,2.02
2018-12-10T04:27:57.696Z,1.72
2018-12-10T04:30:26.442Z,2.12
2018-12-10T04:32:55.122Z,2.50
2018-12-10T04:35:23.907Z,2.20
2018-12-10T04:37:52.603Z,2.30
2018-12-10T04:40:21.338Z,2.47
2018-12-10T04:42:50.079Z,2.30
2018-12-10T04:45:18.830Z,2.60
2018-12-10T04:47:47.591Z,2.60
2018-12-10T04:50:16.354Z,3.10
2018-12-10T04:52:45.038Z,2.75
2018-12-10T04:55:13.771Z,2.92
2018-12-10T04:57:42.656Z,3.25
2018-12-10T05:00:11.364Z,3.23
2018-12-10T05:02:40.099Z,3.07
2018-12-10T05:05:08.759Z,2.80
2018-12-10T05:07:37.498Z,2.95
2018-12-10T05:10:06.423Z,4.30
2018-12-10T05:12:35.104Z,2.80
2018-12-10T05:15:04.080Z,3.03
2018-12-10T05:17:32.806Z,2.92
2018-12-10T05:20:01.963Z,2.73
2018-12-10T05:22:30.663Z,2.83
2018-12-10T05:24:59.335Z,2.87
2018-12-10T05:27:28.061Z,2.37
2018-12-10T05:29:56.842Z,3.10
2018-12-10T05:32:25.559Z,2.87
2018-12-10T05:34:54.243Z,2.70
2018-12-10T05:37:22.915Z,2.60
2018-12-10T05:39:51.663Z,2.50
2018-12-10T05:42:21.418Z,3.20
2018-12-10T05:44:50.166Z,3.27
2018-12-10T05:47:18.831Z,3.40
2018-12-10T05:49:47.543Z,2.50
2018-12-10T05:52:16.202Z,2.87
2018-12-10T05:54:45.291Z,2.30
2018-12-10T05:57:13.955Z,2.40
2018-12-10T05:59:42.616Z,2.37
2018-12-10T06:02:11.326Z,2.10
2018-12-10T06:04:40.794Z,2.80
2018-12-10T06:07:09.522Z,2.63
2018-12-10T06:09:38.193Z,2.00
2018-12-10T06:12:06.923Z,2.50
2018-12-10T06:14:35.643Z,1.93
2018-12-10T06:17:04.378Z,2.20
2018-12-10T06:19:33.088Z,2.90
2018-12-10T06:22:01.782Z,2.37
2018-12-10T06:24:30.450Z,2.80
2018-12-10T06:26:59.152Z,2.60
2018-12-10T06:29:27.895Z,2.67
2018-12-10T06:31:56.640Z,2.40
2018-12-10T06:34:25.371Z,2.58
2018-12-10T06:36:54.103Z,2.20
2018-12-10T06:39:22.879Z,3.33
2018-12-10T06:41:51.562Z,3.00
2018-12-10T06:44:20.310Z,2.30
2018-12-10T06:46:49.050Z,2.30
2018-12-10T06:49:17.738Z,2.63
2018-12-10T06:51:46.419Z,2.20
2018-12-10T06:54:15.184Z,2.90
2018-12-10T06:56:43.875Z,3.00
2018-12-10T06:59:12.571Z,2.63
2018-12-10T07:01:41.578Z,2.47
2018-12-10T07:04:10.316Z,2.85
2018-12-10T07:06:39.114Z,3.03
2018-12-10T07:09:07.907Z,2.50
2018-12-10T07:11:36.691Z,2.80
2018-12-10T07:14:05.391Z,2.92
2018-12-10T07:16:34.070Z,2.40
2018-12-10T07:19:02.780Z,2.37
2018-12-10T07:21:31.590Z,2.80
2018-12-10T07:24:00.347Z,2.60
2018-12-10T07:26:29.014Z,2.70
2018-12-10T07:28:57.691Z,2.80
2018-12-10T07:31:26.490Z,2.55
2018-12-10T07:33:55.190Z,2.42
2018-12-10T07:36:23.906Z,2.37
2018-12-10T07:38:52.590Z,2.47
2018-12-10T07:41:21.252Z,3.27
2018-12-10T07:43:49.987Z,2.00
2018-12-10T07:46:18.695Z,3.00
2018-12-10T07:48:47.362Z,2.40
2018-12-10T07:51:16.075Z,2.02
2018-12-10T07:53:44.806Z,3.00
2018-12-10T07:56:13.511Z,2.33
2018-12-10T07:58:42.203Z,3.77
2018-12-10T08:01:12.247Z,2.70
2018-12-10T08:03:41.111Z,2.40
2018-12-10T08:06:09.819Z,2.33
2018-12-10T08:08:38.538Z,2.30
2018-12-10T08:11:07.318Z,2.95
2018-12-10T08:13:36.051Z,2.77
2018-12-10T08:16:04.771Z,2.50
2018-12-10T08:18:33.434Z,2.60
2018-12-10T08:21:02.699Z,2.70
2018-12-10T08:23:31.690Z,2.45
2018-12-10T08:26:00.695Z,2.98
2018-12-10T08:28:29.354Z,2.50
2018-12-10T08:30:58.100Z,2.70
2018-12-10T08:33:26.867Z,3.00
2018-12-10T08:35:55.574Z,2.50
2018-12-10T08:38:24.319Z,2.35
2018-12-10T08:40:53.052Z,3.10
2018-12-10T08:43:21.786Z,2.00
2018-12-10T08:45:50.492Z,2.37
2018-12-10T08:48:19.243Z,3.80
2018-12-10T08:50:47.967Z,2.60
2018-12-10T08:53:16.684Z,2.40
2018-12-10T08:55:45.330Z,2.67
2018-12-10T08:58:13.990Z,2.40
2018-12-10T09:00:42.731Z,2.75
2018-12-10T09:03:11.440Z,2.13
2018-12-10T09:05:40.147Z,2.70
2018-12-10T09:08:08.859Z,2.75
2018-12-10T09:10:37.583Z,2.83
2018-12-10T09:13:06.299Z,2.70
2018-12-10T09:15:34.952Z,2.70
2018-12-10T09:18:03.727Z,3.10
2018-12-10T09:20:32.407Z,2.83
2018-12-10T09:23:01.136Z,2.80
2018-12-10T09:25:29.854Z,2.70
2018-12-10T09:27:58.615Z,2.70
2018-12-10T09:30:27.331Z,3.67
2018-12-10T09:32:56.166Z,3.05
2018-12-10T09:35:25.993Z,2.60
2018-12-10T09:37:54.663Z,2.75
2018-12-10T09:40:23.350Z,2.60
2018-12-10T09:42:52.034Z,2.40
2018-12-10T09:45:20.773Z,2.40
2018-12-10T09:47:49.436Z,2.25
2018-12-10T09:50:18.299Z,2.72
2018-12-10T09:52:47.936Z,2.25
2018-12-10T09:55:16.779Z,2.17
2018-12-10T09:57:45.503Z,2.80
2018-12-10T10:00:14.264Z,2.40
2018-12-10T10:02:43.003Z,2.95
2018-12-10T10:05:11.730Z,2.15
2018-12-10T10:07:40.450Z,1.98
2018-12-10T10:10:09.191Z,1.95
2018-12-10T10:12:37.933Z,1.70
2018-12-10T10:15:06.663Z,2.30
2018-12-10T10:17:35.375Z,2.05
2018-12-10T10:20:04.306Z,2.20
2018-12-10T10:22:33.034Z,1.93
2018-12-10T10:25:01.707Z,1.50
2018-12-10T10:27:30.355Z,1.70
2018-12-10T10:29:59.056Z,1.80
2018-12-10T10:32:27.794Z,1.70
2018-12-10T10:34:56.531Z,1.90
2018-12-10T10:37:25.251Z,1.87
2018-12-10T10:39:53.926Z,2.00
2018-12-10T10:42:22.582Z,2.30
2018-12-10T10:44:51.304Z,2.40
2018-12-10T10:47:20.004Z,2.33
2018-12-10T10:49:48.735Z,2.27
2018-12-10T10:52:17.450Z,2.50
2018-12-10T10:54:46.138Z,2.67
2018-12-10T10:57:14.882Z,2.33
2018-12-10T10:59:43.563Z,2.20
2018-12-10T11:02:22.502Z,1.70
2018-12-10T11:04:51.583Z,2.00
2018-12-10T11:07:20.309Z,2.50
2018-12-10T11:09:49.040Z,2.33
2018-12-10T11:12:17.767Z,1.95
2018-12-10T11:14:46.558Z,2.30
2018-12-10T11:17:15.274Z,2.58
2018-12-10T11:19:44.011Z,2.45
2018-12-10T11:22:12.727Z,1.80
2018-12-10T11:24:41.510Z,1.80
2018-12-10T11:27:10.246Z,1.75
2018-12-10T11:29:39.014Z,1.90
2018-12-10T11:32:07.747Z,1.80
2018-12-10T11:34:36.468Z,1.90
2018-12-10T11:37:05.256Z,2.00
2018-12-10T11:39:33.954Z,2.20
2018-12-10T11:42:02.635Z,2.10
2018-12-10T11:44:33.459Z,2.42
2018-12-10T11:47:03.531Z,1.90
2018-12-10T11:49:32.227Z,1.80
2018-12-10T11:52:01.120Z,3.00
2018-12-10T11:54:30.715Z,1.80
2018-12-10T11:56:59.483Z,2.50
2018-12-10T11:59:28.220Z,2.20
2018-12-10T12:01:57.410Z,2.20
2018-12-10T12:04:26.143Z,1.93
2018-12-10T12:06:56.795Z,2.03
2018-12-10T12:09:25.526Z,1.80
2018-12-10T12:11:54.565Z,2.00
2018-12-10T12:14:23.394Z,2.10
2018-12-10T12:16:52.135Z,2.12
2018-12-10T12:19:20.865Z,2.10
2018-12-10T12:21:49.599Z,2.30
2018-12-10T12:24:18.338Z,2.65
2018-12-10T12:26:47.027Z,1.95
2018-12-10T12:29:15.747Z,2.72
2018-12-10T12:31:45.130Z,2.40
2018-12-10T12:34:13.947Z,2.27
2018-12-10T12:36:42.702Z,2.00
2018-12-10T12:39:11.723Z,2.02
2018-12-10T12:41:40.455Z,2.80
2018-12-10T12:44:09.490Z,2.08
2018-12-10T12:46:39.586Z,3.30
2018-12-10T12:49:08.615Z,2.37
2018-12-10T12:51:37.323Z,2.45
2018-12-10T12:54:06.487Z,3.00
2018-12-10T12:56:35.974Z,2.40
2018-12-10T12:59:04.730Z,2.77
2018-12-10T13:01:33.466Z,3.00
2018-12-10T13:04:02.151Z,2.85
2018-12-10T13:06:30.950Z,1.80
2018-12-10T13:09:00.812Z,2.67
2018-12-10T13:11:29.695Z,3.00
2018-12-10T13:13:58.375Z,2.10
2018-12-10T13:16:27.397Z,2.05
2018-12-10T13:18:56.554Z,2.00
2018-12-10T13:21:25.246Z,3.00
2018-12-10T13:23:53.990Z,2.60
2018-12-10T13:26:22.667Z,2.92
2018-12-10T13:28:51.347Z,2.40
2018-12-10T13:31:20.103Z,2.33
2018-12-10T13:33:48.779Z,2.20
2018-12-10T13:36:17.534Z,2.37
2018-12-10T13:38:46.304Z,2.08
2018-12-10T13:41:15.020Z,2.50
2018-12-10T13:43:43.762Z,2.50
2018-12-10T13:46:12.513Z,2.40
2018-12-10T13:48:41.250Z,2.77
2018-12-10T13:51:10.022Z,2.67
2018-12-10T13:53:38.715Z,2.70
2018-12-10T13:56:07.438Z,2.60
2018-12-10T13:58:36.178Z,2.60
2018-12-10T14:01:04.951Z,2.72
2018-12-10T14:03:34.203Z,2.15
2018-12-10T14:06:02.988Z,3.05
2018-12-10T14:08:31.787Z,3.05
2018-12-10T14:11:00.646Z,2.50
2018-12-10T14:13:29.411Z,2.60
2018-12-10T14:15:58.207Z,2.77
2018-12-10T14:18:26.967Z,2.60
2018-12-10T14:20:55.729Z,2.15
2018-12-10T14:23:24.503Z,2.73
2018-12-10T14:25:53.615Z,2.60
2018-12-10T14:28:22.391Z,2.87
2018-12-10T14:30:51.270Z,2.70
2018-12-10T14:33:20.012Z,2.90
2018-12-10T14:35:48.751Z,3.10
2018-12-10T14:38:17.499Z,2.30
2018-12-10T14:40:46.186Z,2.27
2018-12-10T14:43:14.950Z,2.50
2018-12-10T14:45:43.698Z,2.40
2018-12-10T14:48:12.860Z,2.80
2018-12-10T14:50:41.937Z,2.10
2018-12-10T14:53:10.780Z,2.40
2018-12-10T14:55:39.622Z,3.07
2018-12-10T14:58:08.413Z,3.03
2018-12-10T15:00:37.202Z,2.85
2018-12-10T15:03:05.969Z,2.58
2018-12-10T15:05:34.757Z,2.80
2018-12-10T15:08:03.491Z,3.17
2018-12-10T15:10:32.430Z,2.72
2018-12-10T15:13:01.121Z,2.67
2018-12-10T15:15:30.134Z,2.50
2018-12-10T15:17:58.816Z,2.60
2018-12-10T15:20:27.663Z,3.33
2018-12-10T15:22:56.414Z,2.97
2018-12-10T15:25:25.547Z,3.67
2018-12-10T15:27:54.275Z,2.90
2018-12-10T15:30:23.045Z,3.10
2018-12-10T15:32:51.819Z,2.97
2018-12-10T15:35:20.575Z,2.50
2018-12-10T15:37:49.333Z,2.90
2018-12-10T15:40:18.091Z,2.70
2018-12-10T15:42:47.691Z,2.58
2018-12-10T15:45:16.518Z,2.70
2018-12-10T15:47:45.263Z,2.50
2018-12-10T15:50:14.058Z,2.77
2018-12-10T15:52:42.838Z,2.60
2018-12-10T15:55:11.655Z,2.83
2018-12-10T15:57:41.400Z,2.90
2018-12-10T16:00:11.389Z,3.20
2018-12-10T16:02:42.489Z,2.50
2018-12-10T16:05:12.264Z,3.43
2018-12-10T16:07:41.771Z,2.80
2018-12-10T16:10:10.526Z,2.70
2018-12-10T16:12:40.568Z,2.33
2018-12-10T16:15:10.265Z,2.90
2018-12-10T16:17:40.634Z,2.80
2018-12-10T16:20:10.533Z,3.10
2018-12-10T16:22:39.590Z,3.50
2018-12-10T16:25:08.654Z,2.50
2018-12-10T16:27:37.927Z,2.10
2018-12-10T16:30:08.520Z,2.47
2018-12-10T16:32:37.990Z,2.45
2018-12-10T16:35:12.982Z,2.50
2018-12-10T16:37:42.633Z,2.50
2018-12-10T16:40:11.371Z,2.97
2018-12-10T16:42:40.063Z,2.25
2018-12-10T16:45:09.271Z,3.47
2018-12-10T16:47:37.958Z,2.42
2018-12-10T16:50:09.345Z,4.80
2018-12-10T16:52:39.005Z,3.47
2018-12-10T16:55:08.935Z,2.80
2018-12-10T16:57:38.428Z,2.80
2018-12-10T17:00:12.102Z,3.20
2018-12-10T17:02:41.707Z,2.67
2018-12-10T17:05:11.933Z,3.52
2018-12-10T17:07:41.243Z,2.45
2018-12-10T17:10:11.083Z,2.37
2018-12-10T17:12:40.186Z,2.50
2018-12-10T17:15:09.518Z,2.10
2018-12-10T17:17:39.833Z,2.40
2018-12-10T17:20:09.209Z,2.55
2018-12-10T17:22:39.493Z,2.70
2018-12-10T17:25:09.625Z,2.58
2018-12-10T17:27:40.277Z,2.30
2018-12-10T17:30:10.185Z,2.70
2018-12-10T17:32:39.793Z,2.70
2018-12-10T17:35:11.188Z,2.90
2018-12-10T17:37:40.782Z,2.60
2018-12-10T17:40:10.599Z,2.40
2018-12-10T17:42:40.225Z,3.00
2018-12-10T17:45:10.989Z,2.42
2018-12-10T17:47:40.659Z,2.83
2018-12-10T17:50:11.882Z,2.60
2018-12-10T17:52:41.462Z,2.80
2018-12-10T17:55:10.240Z,3.13
2018-12-10T17:57:39.861Z,2.10
2018-12-10T18:00:11.427Z,2.70
2018-12-10T18:02:41.918Z,2.60
2018-12-10T18:05:11.574Z,3.95
2018-12-10T18:07:41.180Z,3.30
2018-12-10T18:10:10.690Z,2.85
2018-12-10T18:12:40.283Z,1.90
2018-12-10T18:15:09.975Z,2.50
2018-12-10T18:17:39.605Z,2.23
2018-12-10T18:20:11.764Z,2.70
2018-12-10T18:22:41.501Z,2.80
2018-12-10T18:25:10.878Z,3.50
2018-12-10T18:27:40.485Z,2.73
2018-12-10T18:30:12.136Z,2.55
2018-12-10T18:32:41.867Z,2.87
2018-12-10T18:35:12.037Z,2.80
2018-12-10T18:37:42.133Z,2.90
2018-12-10T18:40:13.301Z,3.00
2018-12-10T18:42:42.843Z,2.70
2018-12-10T18:45:17.488Z,2.67
2018-12-10T18:47:47.206Z,2.63
2018-12-10T18:50:16.910Z,2.90
2018-12-10T18:52:47.067Z,3.00
2018-12-10T18:55:17.048Z,2.30
2018-12-10T18:57:46.615Z,2.17
2018-12-10T19:00:16.034Z,2.37
2018-12-10T19:02:45.589Z,2.80
2018-12-10T19:05:16.103Z,2.20
2018-12-10T19:07:45.645Z,2.47
2018-12-10T19:10:15.204Z,2.00
2018-12-10T19:12:44.810Z,2.70
2018-12-10T19:15:14.273Z,2.90
2018-12-10T19:17:44.007Z,2.43
2018-12-10T19:20:14.374Z,3.40
2018-12-10T19:22:45.768Z,3.00
2018-12-10T19:25:15.404Z,2.80
2018-12-10T19:27:45.945Z,2.77
2018-12-10T19:30:16.193Z,2.62
2018-12-10T19:32:45.641Z,3.22
2018-12-10T19:35:15.215Z,2.50
2018-12-10T19:37:45.507Z,3.63
2018-12-10T19:40:15.241Z,3.27
2018-12-10T19:42:43.959Z,3.35
2018-12-10T19:45:13.936Z,3.30
2018-12-10T19:47:43.966Z,3.75
2018-12-10T19:50:12.694Z,2.60
2018-12-10T19:52:42.377Z,3.00
2018-12-10T19:55:12.009Z,3.83
2018-12-10T19:57:41.676Z,3.83
2018-12-10T20:00:12.374Z,3.43
2018-12-10T20:02:41.883Z,3.50
2018-12-10T20:05:10.666Z,3.80
2018-12-10T20:07:40.295Z,3.47
2018-12-10T20:10:11.209Z,3.40
2018-12-10T20:12:40.852Z,3.87
2018-12-10T20:15:10.903Z,3.43
2018-12-10T20:17:39.652Z,3.77
2018-12-10T20:20:10.611Z,3.90
2018-12-10T20:22:40.173Z,3.74
2018-12-10T20:25:09.707Z,3.45
2018-12-10T20:27:40.420Z,3.10
2018-12-10T20:30:10.228Z,3.70
2018-12-10T20:32:39.867Z,3.90
2018-12-10T20:35:09.663Z,3.55
2018-12-10T20:37:38.407Z,3.60
2018-12-10T20:40:07.530Z,3.30
2018-12-10T20:42:36.279Z,3.20
2018-12-10T20:45:05.982Z,3.30
2018-12-10T20:47:35.071Z,3.40
2018-12-10T20:50:04.579Z,3.10
2018-12-10T20:52:33.256Z,3.50
2018-12-10T20:55:03.011Z,2.56
2018-12-10T20:57:31.722Z,3.07
2018-12-10T21:00:00.494Z,3.30
2018-12-10T21:02:29.419Z,2.80
2018-12-10T21:04:59.173Z,3.10
2018-12-10T21:07:28.120Z,3.42
2018-12-10T21:09:56.831Z,4.20
2018-12-10T21:12:25.703Z,3.00
2018-12-10T21:15:00.173Z,4.00
2018-12-10T21:17:25.175Z,3.45
2018-12-10T21:19:54.880Z,3.67
2018-12-10T21:22:23.618Z,3.05
2018-12-10T21:24:52.391Z,3.40
2018-12-10T21:27:21.055Z,3.27
2018-12-10T21:29:49.732Z,3.87
2018-12-10T21:32:19.487Z,3.23
2018-12-10T21:34:48.235Z,3.60
2018-12-10T21:37:16.991Z,3.40
2018-12-10T21:39:45.758Z,3.50
2018-12-10T21:42:15.265Z,3.40
2018-12-10T21:44:44.007Z,3.30
2018-12-10T21:47:12.787Z,3.20
2018-12-10T21:49:41.485Z,3.90
2018-12-10T21:52:10.239Z,3.70
2018-12-10T21:54:38.893Z,3.40
2018-12-10T21:57:07.599Z,3.53
2018-12-10T21:59:36.332Z,2.97
2018-12-10T22:02:05.083Z,3.67
2018-12-10T22:04:34.579Z,3.50
2018-12-10T22:07:03.377Z,3.70
2018-12-10T22:09:32.138Z,3.53
2018-12-10T22:12:01.379Z,3.80
2018-12-10T22:14:30.517Z,3.40
2018-12-10T22:16:59.300Z,3.17
2018-12-10T22:19:28.011Z,4.60
2018-12-10T22:21:56.687Z,3.47
2018-12-10T22:24:25.733Z,4.00
2018-12-10T22:26:54.400Z,3.80
2018-12-10T22:29:23.079Z,3.80
2018-12-10T22:31:51.739Z,4.12
2018-12-10T22:34:20.499Z,3.42
2018-12-10T22:36:49.181Z,3.72
2018-12-10T22:39:17.882Z,3.58
2018-12-10T22:41:46.586Z,4.40
2018-12-10T22:44:15.328Z,3.10
2018-12-10T22:46:44.107Z,3.75
2018-12-10T22:49:12.799Z,4.03
2018-12-10T22:51:42.555Z,4.33
2018-12-10T22:54:11.327Z,4.25
2018-12-10T22:56:40.075Z,3.25
2018-12-10T22:59:09.714Z,3.60
2018-12-10T23:01:38.468Z,3.63
2018-12-10T23:04:07.258Z,4.10
2018-12-10T23:06:36.037Z,3.90
2018-12-10T23:09:07.088Z,3.70
2018-12-10T23:11:37.705Z,4.22
2018-12-10T23:14:06.487Z,4.80
2018-12-10T23:16:35.290Z,3.70
2018-12-10T23:19:04.014Z,3.80
2018-12-10T23:21:32.687Z,3.67
2018-12-10T23:24:01.378Z,4.30
2018-12-10T23:26:30.095Z,3.90
2018-12-10T23:28:58.775Z,4.20
2018-12-10T23:31:27.510Z,3.87
2018-12-10T23:33:56.270Z,4.97
2018-12-10T23:36:25.058Z,4.75
2018-12-10T23:38:53.774Z,3.55
2018-12-10T23:41:22.517Z,4.28
2018-12-10T23:43:51.171Z,4.70
2018-12-10T23:46:19.886Z,3.55
2018-12-10T23:48:48.555Z,4.55
2018-12-10T23:51:17.228Z,4.30
2018-12-10T23:53:45.907Z,3.95
2018-12-10T23:56:14.623Z,4.20
2018-12-10T23:58:43.298Z,4.70
